Blackberry City, West Virginia
Current Conditions -  °F | °C
As of 6:15 PM on Monday 22 Dec 2014 (Local Time) from KPBX Reporting Station
Broken Clouds Broken Clouds  
Wind Chill: 53°   Ceiling: 11000
Heat Index: 53°   Visibility: 10mi
Dew Point: 40°   Wind: 6mph
Humidity: 62%   Direction: 130°SE
Pressure: 29.84"   Gusts: NA
Location:  37.652°N, 82.1338°W
Report Text: KPBX 222315Z AUTO 13005KT 10SM SCT080 BKN110 12/05 A2984 RMK AO2 T01170046
Loading
Personal Weather Stations






























Interactive Weather Map New forecast layout! Learn more

10-Day Weather Forecast

Advertisements
Track Severe Weather on mobile